sensor_id;sensor_type;location;lat;lon;timestamp;P1;durP1;ratioP1;P2;durP2;ratioP2
15130;SDS011;7666;50.920;4.628;2023-12-20T00:00:41;15.83;;;3.50;;
15130;SDS011;7666;50.920;4.628;2023-12-20T00:03:27;9.77;;;3.03;;
15130;SDS011;7666;50.920;4.628;2023-12-20T00:06:13;12.43;;;3.00;;
15130;SDS011;7666;50.920;4.628;2023-12-20T00:08:59;12.10;;;3.00;;
15130;SDS011;7666;50.920;4.628;2023-12-20T00:11:45;14.47;;;3.00;;
15130;SDS011;7666;50.920;4.628;2023-12-20T00:14:31;12.93;;;2.73;;
15130;SDS011;7666;50.920;4.628;2023-12-20T00:17:17;11.30;;;2.80;;
15130;SDS011;7666;50.920;4.628;2023-12-20T00:20:03;14.33;;;3.10;;
15130;SDS011;7666;50.920;4.628;2023-12-20T00:22:50;11.60;;;3.00;;
15130;SDS011;7666;50.920;4.628;2023-12-20T00:25:36;11.77;;;2.60;;
15130;SDS011;7666;50.920;4.628;2023-12-20T00:28:22;8.97;;;2.23;;
15130;SDS011;7666;50.920;4.628;2023-12-20T00:31:08;10.40;;;2.53;;
15130;SDS011;7666;50.920;4.628;2023-12-20T00:33:54;11.40;;;3.23;;
15130;SDS011;7666;50.920;4.628;2023-12-20T00:36:40;7.10;;;2.33;;
15130;SDS011;7666;50.920;4.628;2023-12-20T00:39:26;11.77;;;2.73;;
15130;SDS011;7666;50.920;4.628;2023-12-20T00:42:12;12.17;;;2.80;;
15130;SDS011;7666;50.920;4.628;2023-12-20T00:44:59;12.13;;;2.63;;
15130;SDS011;7666;50.920;4.628;2023-12-20T00:47:45;8.40;;;2.37;;
15130;SDS011;7666;50.920;4.628;2023-12-20T00:50:31;12.13;;;2.67;;
15130;SDS011;7666;50.920;4.628;2023-12-20T00:53:17;8.23;;;2.30;;
15130;SDS011;7666;50.920;4.628;2023-12-20T00:56:03;11.17;;;2.57;;
15130;SDS011;7666;50.920;4.628;2023-12-20T00:58:49;12.30;;;2.67;;
15130;SDS011;7666;50.920;4.628;2023-12-20T01:01:35;7.13;;;2.27;;
15130;SDS011;7666;50.920;4.628;2023-12-20T01:04:21;10.67;;;2.53;;
15130;SDS011;7666;50.920;4.628;2023-12-20T01:07:07;11.40;;;2.50;;
15130;SDS011;7666;50.920;4.628;2023-12-20T01:09:53;11.17;;;2.70;;
15130;SDS011;7666;50.920;4.628;2023-12-20T01:12:39;10.87;;;3.03;;
15130;SDS011;7666;50.920;4.628;2023-12-20T01:15:25;13.67;;;2.80;;
15130;SDS011;7666;50.920;4.628;2023-12-20T01:18:11;10.57;;;2.90;;
15130;SDS011;7666;50.920;4.628;2023-12-20T01:21:01;9.00;;;2.57;;
15130;SDS011;7666;50.920;4.628;2023-12-20T01:23:48;13.27;;;3.17;;
15130;SDS011;7666;50.920;4.628;2023-12-20T01:26:34;8.33;;;2.40;;
15130;SDS011;7666;50.920;4.628;2023-12-20T01:29:20;14.27;;;3.30;;
15130;SDS011;7666;50.920;4.628;2023-12-20T01:32:06;14.47;;;3.30;;
15130;SDS011;7666;50.920;4.628;2023-12-20T01:34:52;11.53;;;3.00;;
15130;SDS011;7666;50.920;4.628;2023-12-20T01:37:38;11.23;;;2.80;;
15130;SDS011;7666;50.920;4.628;2023-12-20T01:40:24;13.03;;;2.70;;
15130;SDS011;7666;50.920;4.628;2023-12-20T01:43:10;10.20;;;3.17;;
15130;SDS011;7666;50.920;4.628;2023-12-20T01:45:57;13.83;;;3.37;;
15130;SDS011;7666;50.920;4.628;2023-12-20T01:48:44;13.30;;;3.30;;
15130;SDS011;7666;50.920;4.628;2023-12-20T01:51:30;12.93;;;3.17;;
15130;SDS011;7666;50.920;4.628;2023-12-20T01:54:16;12.80;;;3.27;;
15130;SDS011;7666;50.920;4.628;2023-12-20T01:57:05;11.23;;;3.77;;
15130;SDS011;7666;50.920;4.628;2023-12-20T01:59:52;15.47;;;3.17;;
15130;SDS011;7666;50.920;4.628;2023-12-20T02:02:39;14.03;;;3.63;;
15130;SDS011;7666;50.920;4.628;2023-12-20T02:05:25;16.83;;;3.77;;
15130;SDS011;7666;50.920;4.628;2023-12-20T02:08:13;15.53;;;3.60;;
15130;SDS011;7666;50.920;4.628;2023-12-20T02:10:59;12.73;;;3.37;;
15130;SDS011;7666;50.920;4.628;2023-12-20T02:13:45;14.37;;;3.57;;
15130;SDS011;7666;50.920;4.628;2023-12-20T02:16:31;11.70;;;3.77;;
15130;SDS011;7666;50.920;4.628;2023-12-20T02:19:17;13.03;;;4.03;;
15130;SDS011;7666;50.920;4.628;2023-12-20T02:22:11;11.57;;;3.93;;
15130;SDS011;7666;50.920;4.628;2023-12-20T02:24:57;12.67;;;3.80;;
15130;SDS011;7666;50.920;4.628;2023-12-20T02:27:43;11.60;;;4.03;;
15130;SDS011;7666;50.920;4.628;2023-12-20T02:30:29;19.20;;;4.93;;
15130;SDS011;7666;50.920;4.628;2023-12-20T02:33:15;10.70;;;4.00;;
15130;SDS011;7666;50.920;4.628;2023-12-20T02:36:02;15.10;;;4.50;;
15130;SDS011;7666;50.920;4.628;2023-12-20T02:38:48;16.67;;;4.50;;
15130;SDS011;7666;50.920;4.628;2023-12-20T02:41:35;13.97;;;3.70;;
15130;SDS011;7666;50.920;4.628;2023-12-20T02:44:21;17.57;;;3.90;;
15130;SDS011;7666;50.920;4.628;2023-12-20T02:47:07;12.23;;;3.47;;
15130;SDS011;7666;50.920;4.628;2023-12-20T02:49:53;13.73;;;4.30;;
15130;SDS011;7666;50.920;4.628;2023-12-20T02:52:39;18.30;;;4.50;;
15130;SDS011;7666;50.920;4.628;2023-12-20T02:55:25;13.57;;;3.80;;
15130;SDS011;7666;50.920;4.628;2023-12-20T02:58:11;13.07;;;3.60;;
15130;SDS011;7666;50.920;4.628;2023-12-20T03:00:57;16.17;;;4.03;;
15130;SDS011;7666;50.920;4.628;2023-12-20T03:03:43;11.43;;;3.90;;
15130;SDS011;7666;50.920;4.628;2023-12-20T03:06:29;18.33;;;4.17;;
15130;SDS011;7666;50.920;4.628;2023-12-20T03:09:15;16.27;;;4.53;;
15130;SDS011;7666;50.920;4.628;2023-12-20T03:12:01;18.77;;;4.50;;
15130;SDS011;7666;50.920;4.628;2023-12-20T03:14:48;16.13;;;3.90;;
15130;SDS011;7666;50.920;4.628;2023-12-20T03:17:34;13.27;;;3.97;;
15130;SDS011;7666;50.920;4.628;2023-12-20T03:20:20;13.27;;;4.27;;
15130;SDS011;7666;50.920;4.628;2023-12-20T03:23:06;20.13;;;4.37;;
15130;SDS011;7666;50.920;4.628;2023-12-20T03:25:52;11.77;;;3.60;;
15130;SDS011;7666;50.920;4.628;2023-12-20T03:28:38;13.30;;;4.00;;
15130;SDS011;7666;50.920;4.628;2023-12-20T03:31:24;16.67;;;4.10;;
15130;SDS011;7666;50.920;4.628;2023-12-20T03:34:10;20.97;;;5.00;;
15130;SDS011;7666;50.920;4.628;2023-12-20T03:36:57;17.53;;;4.70;;
15130;SDS011;7666;50.920;4.628;2023-12-20T03:39:43;14.90;;;3.93;;
15130;SDS011;7666;50.920;4.628;2023-12-20T03:42:29;12.20;;;4.00;;
15130;SDS011;7666;50.920;4.628;2023-12-20T03:45:15;16.17;;;4.40;;
15130;SDS011;7666;50.920;4.628;2023-12-20T03:48:01;13.40;;;4.13;;
15130;SDS011;7666;50.920;4.628;2023-12-20T03:50:46;13.87;;;4.23;;
15130;SDS011;7666;50.920;4.628;2023-12-20T03:53:32;16.37;;;4.30;;
15130;SDS011;7666;50.920;4.628;2023-12-20T03:56:18;14.20;;;4.10;;
15130;SDS011;7666;50.920;4.628;2023-12-20T03:59:05;21.77;;;4.73;;
15130;SDS011;7666;50.920;4.628;2023-12-20T04:01:51;14.67;;;4.33;;
15130;SDS011;7666;50.920;4.628;2023-12-20T04:04:37;13.07;;;4.23;;
15130;SDS011;7666;50.920;4.628;2023-12-20T04:07:23;12.27;;;4.47;;
15130;SDS011;7666;50.920;4.628;2023-12-20T04:10:09;11.73;;;3.90;;
15130;SDS011;7666;50.920;4.628;2023-12-20T04:12:55;15.67;;;4.43;;
15130;SDS011;7666;50.920;4.628;2023-12-20T04:15:41;15.50;;;4.60;;
15130;SDS011;7666;50.920;4.628;2023-12-20T04:18:28;13.60;;;3.97;;
15130;SDS011;7666;50.920;4.628;2023-12-20T04:21:14;15.80;;;4.67;;
15130;SDS011;7666;50.920;4.628;2023-12-20T04:23:59;19.10;;;5.30;;
15130;SDS011;7666;50.920;4.628;2023-12-20T04:26:45;14.40;;;4.17;;
15130;SDS011;7666;50.920;4.628;2023-12-20T04:29:32;14.60;;;3.93;;
15130;SDS011;7666;50.920;4.628;2023-12-20T04:32:18;14.70;;;4.00;;
15130;SDS011;7666;50.920;4.628;2023-12-20T04:35:04;16.87;;;4.63;;
15130;SDS011;7666;50.920;4.628;2023-12-20T04:37:50;14.63;;;4.37;;
15130;SDS011;7666;50.920;4.628;2023-12-20T04:40:36;16.33;;;4.20;;
15130;SDS011;7666;50.920;4.628;2023-12-20T04:43:22;14.33;;;3.77;;
15130;SDS011;7666;50.920;4.628;2023-12-20T04:46:08;16.87;;;4.00;;
15130;SDS011;7666;50.920;4.628;2023-12-20T04:48:54;13.03;;;3.67;;
15130;SDS011;7666;50.920;4.628;2023-12-20T04:51:40;15.33;;;4.07;;
15130;SDS011;7666;50.920;4.628;2023-12-20T04:54:26;15.77;;;4.60;;
15130;SDS011;7666;50.920;4.628;2023-12-20T04:57:12;15.97;;;4.33;;
15130;SDS011;7666;50.920;4.628;2023-12-20T04:59:58;14.83;;;4.30;;
15130;SDS011;7666;50.920;4.628;2023-12-20T05:02:44;14.07;;;4.43;;
15130;SDS011;7666;50.920;4.628;2023-12-20T05:05:30;15.30;;;4.77;;
15130;SDS011;7666;50.920;4.628;2023-12-20T05:08:17;16.37;;;5.03;;
15130;SDS011;7666;50.920;4.628;2023-12-20T05:11:03;12.47;;;4.33;;
15130;SDS011;7666;50.920;4.628;2023-12-20T05:13:49;14.43;;;4.17;;
15130;SDS011;7666;50.920;4.628;2023-12-20T05:16:35;18.60;;;4.83;;
15130;SDS011;7666;50.920;4.628;2023-12-20T05:19:21;14.23;;;4.03;;
15130;SDS011;7666;50.920;4.628;2023-12-20T05:22:08;15.93;;;4.10;;
15130;SDS011;7666;50.920;4.628;2023-12-20T05:24:54;20.10;;;4.83;;
15130;SDS011;7666;50.920;4.628;2023-12-20T05:27:40;16.53;;;4.13;;
15130;SDS011;7666;50.920;4.628;2023-12-20T05:30:26;13.80;;;4.60;;
15130;SDS011;7666;50.920;4.628;2023-12-20T05:33:12;17.60;;;4.43;;
15130;SDS011;7666;50.920;4.628;2023-12-20T05:35:58;16.10;;;4.30;;
15130;SDS011;7666;50.920;4.628;2023-12-20T05:38:44;12.57;;;4.10;;
15130;SDS011;7666;50.920;4.628;2023-12-20T05:41:30;18.53;;;4.10;;
15130;SDS011;7666;50.920;4.628;2023-12-20T05:44:16;12.93;;;3.87;;
15130;SDS011;7666;50.920;4.628;2023-12-20T05:47:02;15.33;;;3.97;;
15130;SDS011;7666;50.920;4.628;2023-12-20T05:49:48;12.57;;;3.60;;
15130;SDS011;7666;50.920;4.628;2023-12-20T05:52:35;15.17;;;4.50;;
15130;SDS011;7666;50.920;4.628;2023-12-20T05:55:21;10.77;;;3.53;;
15130;SDS011;7666;50.920;4.628;2023-12-20T05:58:07;17.13;;;4.27;;
15130;SDS011;7666;50.920;4.628;2023-12-20T06:00:53;13.73;;;4.13;;
15130;SDS011;7666;50.920;4.628;2023-12-20T06:03:41;14.43;;;4.30;;
15130;SDS011;7666;50.920;4.628;2023-12-20T06:06:27;11.03;;;3.80;;
15130;SDS011;7666;50.920;4.628;2023-12-20T06:09:13;17.77;;;4.30;;
15130;SDS011;7666;50.920;4.628;2023-12-20T06:12:00;13.13;;;4.20;;
15130;SDS011;7666;50.920;4.628;2023-12-20T06:14:46;16.03;;;4.17;;
15130;SDS011;7666;50.920;4.628;2023-12-20T06:17:32;16.63;;;4.03;;
15130;SDS011;7666;50.920;4.628;2023-12-20T06:20:18;18.97;;;4.23;;
15130;SDS011;7666;50.920;4.628;2023-12-20T06:23:04;11.37;;;4.00;;
15130;SDS011;7666;50.920;4.628;2023-12-20T06:25:50;17.20;;;4.83;;
15130;SDS011;7666;50.920;4.628;2023-12-20T06:28:36;11.53;;;4.13;;
15130;SDS011;7666;50.920;4.628;2023-12-20T06:31:22;18.07;;;4.67;;
15130;SDS011;7666;50.920;4.628;2023-12-20T06:34:08;15.63;;;4.77;;
15130;SDS011;7666;50.920;4.628;2023-12-20T06:36:54;15.37;;;4.20;;
15130;SDS011;7666;50.920;4.628;2023-12-20T06:39:40;15.10;;;3.83;;
15130;SDS011;7666;50.920;4.628;2023-12-20T06:42:26;12.33;;;3.80;;
15130;SDS011;7666;50.920;4.628;2023-12-20T06:45:12;15.17;;;3.90;;
15130;SDS011;7666;50.920;4.628;2023-12-20T06:47:58;13.73;;;3.43;;
15130;SDS011;7666;50.920;4.628;2023-12-20T06:50:44;11.57;;;4.17;;
15130;SDS011;7666;50.920;4.628;2023-12-20T06:53:30;13.63;;;4.00;;
15130;SDS011;7666;50.920;4.628;2023-12-20T06:56:16;16.53;;;4.20;;
15130;SDS011;7666;50.920;4.628;2023-12-20T06:59:02;21.43;;;3.63;;
15130;SDS011;7666;50.920;4.628;2023-12-20T07:01:48;16.03;;;3.80;;
15130;SDS011;7666;50.920;4.628;2023-12-20T07:04:38;10.70;;;3.53;;
15130;SDS011;7666;50.920;4.628;2023-12-20T07:07:25;14.07;;;3.27;;
15130;SDS011;7666;50.920;4.628;2023-12-20T07:10:11;19.03;;;4.03;;
15130;SDS011;7666;50.920;4.628;2023-12-20T07:12:58;15.70;;;4.47;;
15130;SDS011;7666;50.920;4.628;2023-12-20T07:15:44;12.80;;;3.10;;
15130;SDS011;7666;50.920;4.628;2023-12-20T07:18:30;14.17;;;3.47;;
15130;SDS011;7666;50.920;4.628;2023-12-20T07:21:16;14.00;;;4.07;;
15130;SDS011;7666;50.920;4.628;2023-12-20T07:24:01;13.77;;;3.60;;
15130;SDS011;7666;50.920;4.628;2023-12-20T07:26:47;18.07;;;4.53;;
15130;SDS011;7666;50.920;4.628;2023-12-20T07:29:34;14.70;;;3.87;;
15130;SDS011;7666;50.920;4.628;2023-12-20T07:32:19;15.03;;;4.20;;
15130;SDS011;7666;50.920;4.628;2023-12-20T07:35:05;14.00;;;3.67;;
15130;SDS011;7666;50.920;4.628;2023-12-20T07:37:52;19.53;;;4.07;;
15130;SDS011;7666;50.920;4.628;2023-12-20T07:40:38;12.17;;;3.63;;
15130;SDS011;7666;50.920;4.628;2023-12-20T07:43:24;17.93;;;3.77;;
15130;SDS011;7666;50.920;4.628;2023-12-20T07:46:10;13.50;;;3.50;;
15130;SDS011;7666;50.920;4.628;2023-12-20T07:48:56;16.33;;;3.50;;
15130;SDS011;7666;50.920;4.628;2023-12-20T07:51:42;13.77;;;3.90;;
15130;SDS011;7666;50.920;4.628;2023-12-20T07:54:28;15.80;;;3.97;;
15130;SDS011;7666;50.920;4.628;2023-12-20T07:57:14;13.13;;;3.00;;
15130;SDS011;7666;50.920;4.628;2023-12-20T08:00:00;15.00;;;3.70;;
15130;SDS011;7666;50.920;4.628;2023-12-20T08:02:46;14.50;;;3.97;;
15130;SDS011;7666;50.920;4.628;2023-12-20T08:05:32;13.67;;;3.43;;
15130;SDS011;7666;50.920;4.628;2023-12-20T08:08:18;15.30;;;3.50;;
15130;SDS011;7666;50.920;4.628;2023-12-20T08:11:04;13.27;;;3.70;;
15130;SDS011;7666;50.920;4.628;2023-12-20T08:13:50;20.83;;;4.27;;
15130;SDS011;7666;50.920;4.628;2023-12-20T08:16:36;14.87;;;3.40;;
15130;SDS011;7666;50.920;4.628;2023-12-20T08:19:22;15.83;;;3.33;;
15130;SDS011;7666;50.920;4.628;2023-12-20T08:22:08;15.80;;;4.17;;
15130;SDS011;7666;50.920;4.628;2023-12-20T08:24:54;15.07;;;3.67;;
15130;SDS011;7666;50.920;4.628;2023-12-20T08:27:40;16.00;;;3.90;;
15130;SDS011;7666;50.920;4.628;2023-12-20T08:30:26;15.10;;;3.50;;
15130;SDS011;7666;50.920;4.628;2023-12-20T08:33:12;17.00;;;3.83;;
15130;SDS011;7666;50.920;4.628;2023-12-20T08:35:58;11.13;;;3.17;;
15130;SDS011;7666;50.920;4.628;2023-12-20T08:38:44;12.57;;;3.17;;
15130;SDS011;7666;50.920;4.628;2023-12-20T08:41:30;12.83;;;3.10;;
15130;SDS011;7666;50.920;4.628;2023-12-20T08:44:16;10.00;;;3.13;;
15130;SDS011;7666;50.920;4.628;2023-12-20T08:47:02;14.13;;;3.30;;
15130;SDS011;7666;50.920;4.628;2023-12-20T08:49:48;14.17;;;3.67;;
15130;SDS011;7666;50.920;4.628;2023-12-20T08:52:34;16.53;;;3.40;;
15130;SDS011;7666;50.920;4.628;2023-12-20T08:55:20;14.37;;;3.67;;
15130;SDS011;7666;50.920;4.628;2023-12-20T08:58:06;12.77;;;3.27;;
15130;SDS011;7666;50.920;4.628;2023-12-20T09:00:53;15.60;;;3.30;;
15130;SDS011;7666;50.920;4.628;2023-12-20T09:03:39;12.53;;;3.50;;
15130;SDS011;7666;50.920;4.628;2023-12-20T09:06:25;13.07;;;3.70;;
15130;SDS011;7666;50.920;4.628;2023-12-20T09:09:11;15.13;;;3.43;;
15130;SDS011;7666;50.920;4.628;2023-12-20T09:11:59;16.87;;;3.47;;
15130;SDS011;7666;50.920;4.628;2023-12-20T09:14:45;15.63;;;3.47;;
15130;SDS011;7666;50.920;4.628;2023-12-20T09:17:32;13.87;;;3.30;;
15130;SDS011;7666;50.920;4.628;2023-12-20T09:20:18;16.53;;;3.50;;
15130;SDS011;7666;50.920;4.628;2023-12-20T09:23:04;15.93;;;3.30;;
15130;SDS011;7666;50.920;4.628;2023-12-20T09:25:50;11.70;;;3.50;;
15130;SDS011;7666;50.920;4.628;2023-12-20T09:28:36;16.07;;;3.63;;
15130;SDS011;7666;50.920;4.628;2023-12-20T09:31:22;17.10;;;4.17;;
15130;SDS011;7666;50.920;4.628;2023-12-20T09:34:08;9.17;;;3.30;;
15130;SDS011;7666;50.920;4.628;2023-12-20T09:36:54;14.00;;;3.30;;
15130;SDS011;7666;50.920;4.628;2023-12-20T09:39:40;9.63;;;2.97;;
15130;SDS011;7666;50.920;4.628;2023-12-20T09:42:33;13.97;;;3.40;;
15130;SDS011;7666;50.920;4.628;2023-12-20T09:45:25;14.37;;;3.57;;
15130;SDS011;7666;50.920;4.628;2023-12-20T09:48:11;13.50;;;3.53;;
15130;SDS011;7666;50.920;4.628;2023-12-20T09:50:58;12.73;;;3.17;;
15130;SDS011;7666;50.920;4.628;2023-12-20T09:53:44;14.93;;;3.50;;
15130;SDS011;7666;50.920;4.628;2023-12-20T09:56:31;10.70;;;3.57;;
15130;SDS011;7666;50.920;4.628;2023-12-20T09:59:17;8.17;;;3.13;;
15130;SDS011;7666;50.920;4.628;2023-12-20T10:02:03;14.57;;;3.70;;
15130;SDS011;7666;50.920;4.628;2023-12-20T10:04:56;13.80;;;3.20;;
15130;SDS011;7666;50.920;4.628;2023-12-20T10:07:42;13.10;;;3.60;;
15130;SDS011;7666;50.920;4.628;2023-12-20T10:10:28;14.33;;;2.90;;
15130;SDS011;7666;50.920;4.628;2023-12-20T10:13:14;11.03;;;3.20;;
15130;SDS011;7666;50.920;4.628;2023-12-20T10:16:01;14.40;;;3.87;;
15130;SDS011;7666;50.920;4.628;2023-12-20T10:18:47;12.37;;;3.87;;
15130;SDS011;7666;50.920;4.628;2023-12-20T10:21:34;14.37;;;3.37;;
15130;SDS011;7666;50.920;4.628;2023-12-20T10:24:19;11.43;;;3.70;;
15130;SDS011;7666;50.920;4.628;2023-12-20T10:27:07;15.33;;;4.10;;
15130;SDS011;7666;50.920;4.628;2023-12-20T10:29:53;13.13;;;3.70;;
15130;SDS011;7666;50.920;4.628;2023-12-20T10:32:39;15.00;;;3.47;;
15130;SDS011;7666;50.920;4.628;2023-12-20T10:35:26;10.83;;;3.10;;
15130;SDS011;7666;50.920;4.628;2023-12-20T10:38:12;17.90;;;3.70;;
15130;SDS011;7666;50.920;4.628;2023-12-20T10:40:59;12.40;;;3.60;;
15130;SDS011;7666;50.920;4.628;2023-12-20T10:43:47;15.10;;;3.63;;
15130;SDS011;7666;50.920;4.628;2023-12-20T10:46:33;12.93;;;3.43;;
15130;SDS011;7666;50.920;4.628;2023-12-20T10:49:19;13.47;;;3.70;;
15130;SDS011;7666;50.920;4.628;2023-12-20T10:52:06;12.17;;;3.70;;
15130;SDS011;7666;50.920;4.628;2023-12-20T10:54:54;13.00;;;3.57;;
15130;SDS011;7666;50.920;4.628;2023-12-20T10:57:40;13.10;;;3.50;;
15130;SDS011;7666;50.920;4.628;2023-12-20T11:00:28;14.40;;;3.80;;
15130;SDS011;7666;50.920;4.628;2023-12-20T11:03:16;13.37;;;3.57;;
15130;SDS011;7666;50.920;4.628;2023-12-20T11:11:46;14.77;;;3.43;;
15130;SDS011;7666;50.920;4.628;2023-12-20T11:17:35;11.93;;;3.63;;
15130;SDS011;7666;50.920;4.628;2023-12-20T11:20:35;14.47;;;3.57;;
15130;SDS011;7666;50.920;4.628;2023-12-20T11:23:21;13.13;;;3.27;;
15130;SDS011;7666;50.920;4.628;2023-12-20T11:26:07;12.10;;;3.43;;
15130;SDS011;7666;50.920;4.628;2023-12-20T11:28:53;9.87;;;3.20;;
15130;SDS011;7666;50.920;4.628;2023-12-20T11:31:40;12.83;;;3.30;;
15130;SDS011;7666;50.920;4.628;2023-12-20T11:34:27;13.27;;;3.30;;
15130;SDS011;7666;50.920;4.628;2023-12-20T11:37:19;11.67;;;3.37;;
15130;SDS011;7666;50.920;4.628;2023-12-20T11:40:06;14.47;;;3.77;;
15130;SDS011;7666;50.920;4.628;2023-12-20T11:42:54;14.93;;;3.20;;
15130;SDS011;7666;50.920;4.628;2023-12-20T11:45:48;18.07;;;3.73;;
15130;SDS011;7666;50.920;4.628;2023-12-20T11:48:37;16.23;;;3.27;;
15130;SDS011;7666;50.920;4.628;2023-12-20T11:51:24;14.53;;;3.50;;
15130;SDS011;7666;50.920;4.628;2023-12-20T11:54:10;16.37;;;3.60;;
15130;SDS011;7666;50.920;4.628;2023-12-20T11:56:56;16.13;;;3.13;;
15130;SDS011;7666;50.920;4.628;2023-12-20T11:59:42;15.10;;;3.70;;
15130;SDS011;7666;50.920;4.628;2023-12-20T12:02:29;13.80;;;3.90;;
15130;SDS011;7666;50.920;4.628;2023-12-20T12:05:16;13.57;;;3.67;;
15130;SDS011;7666;50.920;4.628;2023-12-20T12:08:02;13.20;;;3.40;;
15130;SDS011;7666;50.920;4.628;2023-12-20T12:10:48;16.50;;;4.00;;
15130;SDS011;7666;50.920;4.628;2023-12-20T12:13:34;14.67;;;3.87;;
15130;SDS011;7666;50.920;4.628;2023-12-20T12:16:20;20.83;;;6.87;;
15130;SDS011;7666;50.920;4.628;2023-12-20T12:19:06;14.17;;;3.97;;
15130;SDS011;7666;50.920;4.628;2023-12-20T12:22:05;14.93;;;3.27;;
15130;SDS011;7666;50.920;4.628;2023-12-20T12:25:11;14.23;;;3.70;;
15130;SDS011;7666;50.920;4.628;2023-12-20T12:27:58;15.70;;;4.07;;
15130;SDS011;7666;50.920;4.628;2023-12-20T12:30:57;10.27;;;3.27;;
15130;SDS011;7666;50.920;4.628;2023-12-20T12:33:44;16.87;;;3.80;;
15130;SDS011;7666;50.920;4.628;2023-12-20T12:36:31;16.10;;;3.60;;
15130;SDS011;7666;50.920;4.628;2023-12-20T12:39:17;17.27;;;3.90;;
15130;SDS011;7666;50.920;4.628;2023-12-20T12:42:04;13.30;;;3.50;;
15130;SDS011;7666;50.920;4.628;2023-12-20T12:44:50;20.23;;;5.67;;
15130;SDS011;7666;50.920;4.628;2023-12-20T12:47:36;21.50;;;4.03;;
15130;SDS011;7666;50.920;4.628;2023-12-20T12:50:22;14.70;;;3.83;;
15130;SDS011;7666;50.920;4.628;2023-12-20T12:53:08;9.17;;;3.20;;
15130;SDS011;7666;50.920;4.628;2023-12-20T12:55:54;14.93;;;3.60;;
15130;SDS011;7666;50.920;4.628;2023-12-20T12:58:40;16.07;;;3.63;;
15130;SDS011;7666;50.920;4.628;2023-12-20T13:01:26;9.93;;;3.40;;
15130;SDS011;7666;50.920;4.628;2023-12-20T13:04:12;15.13;;;3.37;;
15130;SDS011;7666;50.920;4.628;2023-12-20T13:06:58;13.73;;;3.77;;
15130;SDS011;7666;50.920;4.628;2023-12-20T13:09:45;8.77;;;3.07;;
15130;SDS011;7666;50.920;4.628;2023-12-20T13:12:31;11.70;;;3.03;;
15130;SDS011;7666;50.920;4.628;2023-12-20T13:15:17;11.07;;;3.17;;
15130;SDS011;7666;50.920;4.628;2023-12-20T13:18:03;14.87;;;3.83;;
15130;SDS011;7666;50.920;4.628;2023-12-20T13:20:51;10.43;;;3.40;;
15130;SDS011;7666;50.920;4.628;2023-12-20T13:23:37;12.83;;;3.60;;
15130;SDS011;7666;50.920;4.628;2023-12-20T13:26:23;12.97;;;3.17;;
15130;SDS011;7666;50.920;4.628;2023-12-20T13:29:09;10.33;;;3.00;;
15130;SDS011;7666;50.920;4.628;2023-12-20T13:31:55;11.93;;;3.47;;
15130;SDS011;7666;50.920;4.628;2023-12-20T13:34:42;13.77;;;3.70;;
15130;SDS011;7666;50.920;4.628;2023-12-20T13:37:27;13.47;;;3.33;;
15130;SDS011;7666;50.920;4.628;2023-12-20T13:40:14;12.60;;;2.83;;
15130;SDS011;7666;50.920;4.628;2023-12-20T13:43:00;11.97;;;3.13;;
15130;SDS011;7666;50.920;4.628;2023-12-20T13:45:48;12.40;;;3.53;;
15130;SDS011;7666;50.920;4.628;2023-12-20T13:48:34;13.93;;;3.50;;
15130;SDS011;7666;50.920;4.628;2023-12-20T13:51:20;13.10;;;3.30;;
15130;SDS011;7666;50.920;4.628;2023-12-20T13:54:06;11.17;;;3.30;;
15130;SDS011;7666;50.920;4.628;2023-12-20T13:56:52;12.43;;;3.70;;
15130;SDS011;7666;50.920;4.628;2023-12-20T13:59:38;13.10;;;3.47;;
15130;SDS011;7666;50.920;4.628;2023-12-20T14:02:24;11.47;;;3.10;;
15130;SDS011;7666;50.920;4.628;2023-12-20T14:05:12;11.17;;;3.33;;
15130;SDS011;7666;50.920;4.628;2023-12-20T14:07:59;13.20;;;3.60;;
15130;SDS011;7666;50.920;4.628;2023-12-20T14:10:45;19.30;;;4.40;;
15130;SDS011;7666;50.920;4.628;2023-12-20T14:13:31;11.00;;;3.10;;
15130;SDS011;7666;50.920;4.628;2023-12-20T14:16:17;11.97;;;3.33;;
15130;SDS011;7666;50.920;4.628;2023-12-20T14:19:04;12.37;;;3.40;;
15130;SDS011;7666;50.920;4.628;2023-12-20T14:21:52;14.17;;;3.60;;
15130;SDS011;7666;50.920;4.628;2023-12-20T14:24:38;15.33;;;3.97;;
15130;SDS011;7666;50.920;4.628;2023-12-20T14:27:24;11.10;;;3.20;;
15130;SDS011;7666;50.920;4.628;2023-12-20T14:30:13;14.47;;;3.83;;
15130;SDS011;7666;50.920;4.628;2023-12-20T14:32:59;12.27;;;3.53;;
15130;SDS011;7666;50.920;4.628;2023-12-20T14:35:45;12.27;;;3.47;;
15130;SDS011;7666;50.920;4.628;2023-12-20T14:38:31;12.17;;;2.83;;
15130;SDS011;7666;50.920;4.628;2023-12-20T14:41:17;14.23;;;3.27;;
15130;SDS011;7666;50.920;4.628;2023-12-20T14:44:04;9.93;;;3.13;;
15130;SDS011;7666;50.920;4.628;2023-12-20T14:46:50;11.83;;;3.37;;
15130;SDS011;7666;50.920;4.628;2023-12-20T14:49:36;13.83;;;3.53;;
15130;SDS011;7666;50.920;4.628;2023-12-20T14:52:23;11.87;;;3.70;;
15130;SDS011;7666;50.920;4.628;2023-12-20T14:55:09;13.97;;;3.60;;
15130;SDS011;7666;50.920;4.628;2023-12-20T14:57:55;8.50;;;3.10;;
15130;SDS011;7666;50.920;4.628;2023-12-20T15:00:40;13.27;;;3.60;;
15130;SDS011;7666;50.920;4.628;2023-12-20T15:03:28;11.87;;;3.50;;
15130;SDS011;7666;50.920;4.628;2023-12-20T15:06:15;9.73;;;3.17;;
15130;SDS011;7666;50.920;4.628;2023-12-20T15:09:01;11.20;;;3.00;;
15130;SDS011;7666;50.920;4.628;2023-12-20T15:11:50;13.20;;;3.77;;
15130;SDS011;7666;50.920;4.628;2023-12-20T15:14:36;9.70;;;3.17;;
15130;SDS011;7666;50.920;4.628;2023-12-20T15:17:22;10.73;;;3.77;;
15130;SDS011;7666;50.920;4.628;2023-12-20T15:20:08;15.00;;;3.00;;
15130;SDS011;7666;50.920;4.628;2023-12-20T15:22:58;13.27;;;2.90;;
15130;SDS011;7666;50.920;4.628;2023-12-20T15:25:50;10.97;;;3.20;;
15130;SDS011;7666;50.920;4.628;2023-12-20T15:28:36;13.33;;;3.43;;
15130;SDS011;7666;50.920;4.628;2023-12-20T15:31:22;14.63;;;3.30;;
15130;SDS011;7666;50.920;4.628;2023-12-20T15:34:11;13.10;;;3.50;;
15130;SDS011;7666;50.920;4.628;2023-12-20T15:36:58;13.13;;;3.90;;
15130;SDS011;7666;50.920;4.628;2023-12-20T15:39:44;12.80;;;3.47;;
15130;SDS011;7666;50.920;4.628;2023-12-20T15:42:30;15.83;;;3.60;;
15130;SDS011;7666;50.920;4.628;2023-12-20T15:45:17;10.07;;;3.03;;
15130;SDS011;7666;50.920;4.628;2023-12-20T15:48:03;9.73;;;3.30;;
15130;SDS011;7666;50.920;4.628;2023-12-20T15:50:50;16.53;;;3.70;;
15130;SDS011;7666;50.920;4.628;2023-12-20T15:53:36;12.13;;;3.60;;
15130;SDS011;7666;50.920;4.628;2023-12-20T15:56:22;13.43;;;3.80;;
15130;SDS011;7666;50.920;4.628;2023-12-20T15:59:08;13.77;;;3.60;;
15130;SDS011;7666;50.920;4.628;2023-12-20T16:01:55;10.97;;;3.70;;
15130;SDS011;7666;50.920;4.628;2023-12-20T16:04:41;12.47;;;3.50;;
15130;SDS011;7666;50.920;4.628;2023-12-20T16:07:27;11.13;;;3.23;;
15130;SDS011;7666;50.920;4.628;2023-12-20T16:10:13;14.63;;;3.27;;
15130;SDS011;7666;50.920;4.628;2023-12-20T16:12:59;14.03;;;3.73;;
15130;SDS011;7666;50.920;4.628;2023-12-20T16:15:45;9.10;;;2.97;;
15130;SDS011;7666;50.920;4.628;2023-12-20T16:18:31;12.37;;;3.43;;
15130;SDS011;7666;50.920;4.628;2023-12-20T16:21:18;12.40;;;3.53;;
15130;SDS011;7666;50.920;4.628;2023-12-20T16:24:04;12.67;;;4.03;;
15130;SDS011;7666;50.920;4.628;2023-12-20T16:26:50;12.67;;;3.80;;
15130;SDS011;7666;50.920;4.628;2023-12-20T16:29:36;12.47;;;4.00;;
15130;SDS011;7666;50.920;4.628;2023-12-20T16:32:22;13.57;;;3.30;;
15130;SDS011;7666;50.920;4.628;2023-12-20T16:35:08;12.07;;;3.33;;
15130;SDS011;7666;50.920;4.628;2023-12-20T16:37:54;10.47;;;3.23;;
15130;SDS011;7666;50.920;4.628;2023-12-20T16:40:40;12.27;;;3.67;;
15130;SDS011;7666;50.920;4.628;2023-12-20T16:43:26;11.80;;;3.47;;
15130;SDS011;7666;50.920;4.628;2023-12-20T16:46:12;10.00;;;3.23;;
15130;SDS011;7666;50.920;4.628;2023-12-20T16:48:59;16.10;;;3.50;;
15130;SDS011;7666;50.920;4.628;2023-12-20T16:51:45;12.57;;;3.23;;